createdAt,value
2023-04-07T00:01:18.404Z,29.67
2023-04-07T00:06:22.733Z,34.08
2023-04-07T00:11:28.380Z,46.17
2023-04-07T00:16:32.552Z,33.83
2023-04-07T00:21:36.954Z,33.15
2023-04-07T00:26:42.714Z,34.88
2023-04-07T00:31:46.958Z,31.45
2023-04-07T00:36:52.534Z,31.50
2023-04-07T00:41:58.486Z,28.35
2023-04-07T00:47:03.186Z,29.17
2023-04-07T00:52:08.002Z,27.40
2023-04-07T00:57:13.935Z,27.40
2023-04-07T01:02:23.096Z,25.02
2023-04-07T01:07:34.514Z,23.85
2023-04-07T01:12:54.133Z,23.92
2023-04-07T01:18:08.607Z,26.45
2023-04-07T01:23:19.202Z,23.75
2023-04-07T01:28:51.902Z,25.15
2023-04-07T01:34:00.700Z,22.63
2023-04-07T01:39:05.822Z,25.23
2023-04-07T01:44:11.176Z,24.55
2023-04-07T01:49:17.081Z,24.58
2023-04-07T01:54:22.816Z,25.45
2023-04-07T01:59:27.150Z,25.40
2023-04-07T02:04:39.315Z,26.02
2023-04-07T02:09:44.993Z,25.17
2023-04-07T02:14:49.325Z,25.92
2023-04-07T02:19:57.490Z,26.10
2023-04-07T02:25:02.473Z,23.70
2023-04-07T02:30:08.287Z,24.52
2023-04-07T02:35:14.058Z,23.88
2023-04-07T02:40:18.680Z,22.95
2023-04-07T02:45:23.415Z,23.90
2023-04-07T02:50:29.344Z,25.17
2023-04-07T02:55:33.694Z,24.13
2023-04-07T03:00:38.041Z,24.75
2023-04-07T03:05:50.068Z,24.33
2023-04-07T03:10:54.560Z,24.90
2023-04-07T03:16:04.488Z,25.20
2023-04-07T03:21:17.559Z,26.48
2023-04-07T03:26:23.047Z,27.02
2023-04-07T03:31:28.080Z,23.90
2023-04-07T03:36:33.889Z,25.38
2023-04-07T03:41:41.721Z,25.23
2023-04-07T03:46:48.435Z,25.02
2023-04-07T03:51:55.330Z,23.30
2023-04-07T03:56:59.760Z,22.42
2023-04-07T04:02:04.636Z,21.23
2023-04-07T04:07:11.741Z,24.77
2023-04-07T04:12:26.608Z,23.83
2023-04-07T04:17:41.718Z,22.55
2023-04-07T04:22:48.446Z,23.50
2023-04-07T04:27:53.914Z,24.58
2023-04-07T04:33:00.617Z,24.75
2023-04-07T04:38:33.447Z,24.48
2023-04-07T04:44:03.631Z,22.70
2023-04-07T04:49:08.858Z,23.92
2023-04-07T04:54:15.725Z,24.80
2023-04-07T04:59:21.120Z,27.52
2023-04-07T05:04:34.005Z,24.48
2023-04-07T05:10:07.060Z,30.45
2023-04-07T05:15:15.421Z,26.63
2023-04-07T05:20:23.144Z,24.48
2023-04-07T05:25:29.152Z,23.65
2023-04-07T05:30:36.940Z,26.63
2023-04-07T05:35:42.438Z,23.48
2023-04-07T05:40:48.853Z,27.02
2023-04-07T05:46:13.549Z,25.83
2023-04-07T05:51:26.531Z,22.70
2023-04-07T05:56:34.580Z,22.27
2023-04-07T06:01:39.112Z,27.98
2023-04-07T06:06:48.681Z,30.85
2023-04-07T06:11:54.210Z,51.08
2023-04-07T06:16:59.319Z,47.05
2023-04-07T06:22:08.810Z,31.38
2023-04-07T06:27:16.592Z,73.15
2023-04-07T06:32:20.998Z,42.90
2023-04-07T06:37:26.320Z,31.13
2023-04-07T06:42:33.204Z,45.20
2023-04-07T06:47:49.664Z,29.33
2023-04-07T06:52:53.995Z,27.58
2023-04-07T06:57:59.657Z,31.10
2023-04-07T07:03:04.014Z,20.25
2023-04-07T07:08:08.176Z,19.02
2023-04-07T07:13:13.974Z,37.22
2023-04-07T07:18:18.632Z,23.10
2023-04-07T07:23:23.462Z,23.70
2023-04-07T07:28:29.409Z,22.40
2023-04-07T07:33:33.482Z,24.02
2023-04-07T07:38:37.972Z,55.45
2023-04-07T07:43:43.672Z,44.65
2023-04-07T07:48:48.364Z,153.63
2023-04-07T07:53:52.877Z,40.83
2023-04-07T07:58:59.233Z,44.45
2023-04-07T08:04:03.998Z,32.05
2023-04-07T08:09:08.622Z,43.25
2023-04-07T08:14:14.491Z,36.00
2023-04-07T08:19:19.247Z,39.80
2023-04-07T08:24:23.648Z,47.67
2023-04-07T08:29:30.617Z,55.60
2023-04-07T08:34:35.690Z,40.63
2023-04-07T08:39:40.153Z,30.27
2023-04-07T08:44:49.481Z,33.50
2023-04-07T08:49:54.719Z,28.13
2023-04-07T08:55:01.790Z,38.20
2023-04-07T09:00:09.309Z,37.35
2023-04-07T09:05:15.592Z,46.33
2023-04-07T09:10:19.686Z,35.70
2023-04-07T09:15:25.872Z,46.08
2023-04-07T09:20:30.267Z,39.60
2023-04-07T09:25:34.477Z,38.15
2023-04-07T09:30:41.141Z,72.97
2023-04-07T09:35:53.774Z,42.45
2023-04-07T09:41:07.995Z,36.72
2023-04-07T09:46:15.883Z,42.55
2023-04-07T09:51:20.219Z,38.22
2023-04-07T09:56:24.379Z,44.13
2023-04-07T10:01:30.269Z,38.85
2023-04-07T10:06:34.712Z,35.08
2023-04-07T10:11:39.834Z,55.53
2023-04-07T10:16:45.779Z,39.60
2023-04-07T10:21:53.005Z,35.22
2023-04-07T10:27:02.695Z,29.73
2023-04-07T10:32:08.851Z,49.67
2023-04-07T10:37:14.977Z,29.70
2023-04-07T10:42:48.237Z,32.95
2023-04-07T10:48:13.698Z,63.28
2023-04-07T10:53:18.075Z,53.28
2023-04-07T10:58:25.846Z,70.97
2023-04-07T11:03:34.362Z,85.70
2023-04-07T11:08:40.740Z,58.08
2023-04-07T11:13:46.648Z,40.90
2023-04-07T11:18:58.763Z,45.83
2023-04-07T11:24:03.284Z,34.95
2023-04-07T11:29:08.386Z,27.80
2023-04-07T11:34:14.166Z,32.13
2023-04-07T11:39:22.335Z,38.88
2023-04-07T11:44:27.408Z,27.25
2023-04-07T11:49:33.104Z,20.85
2023-04-07T11:54:42.933Z,21.30
2023-04-07T12:04:58.999Z,26.15
2023-04-07T12:10:21.943Z,29.90
2023-04-07T12:15:26.147Z,55.47
2023-04-07T12:20:31.939Z,67.05
2023-04-07T12:25:36.163Z,63.45
2023-04-07T12:30:40.327Z,21.58
2023-04-07T12:35:46.455Z,87.78
2023-04-07T12:40:51.917Z,60.10
2023-04-07T12:45:56.426Z,70.07
2023-04-07T12:51:02.541Z,43.15
2023-04-07T12:56:06.942Z,41.67
2023-04-07T13:01:11.184Z,42.33
2023-04-07T13:06:17.699Z,51.95
2023-04-07T13:11:22.099Z,43.88
2023-04-07T13:16:26.526Z,32.80
2023-04-07T13:26:39.561Z,27.02
2023-04-07T13:31:44.128Z,44.78
2023-04-07T13:36:49.971Z,45.03
2023-04-07T13:41:54.155Z,28.13
2023-04-07T13:46:59.050Z,31.98
2023-04-07T13:52:05.302Z,28.17
2023-04-07T13:57:09.750Z,29.30
2023-04-07T14:02:14.089Z,28.45
2023-04-07T14:07:20.148Z,33.00
2023-04-07T14:12:24.512Z,31.55
2023-04-07T14:17:28.973Z,25.98
2023-04-07T14:22:34.847Z,27.50
2023-04-07T14:27:39.318Z,32.97
2023-04-07T14:32:43.730Z,36.95
2023-04-07T14:37:49.341Z,31.67
2023-04-07T14:43:06.738Z,54.13
2023-04-07T14:48:11.605Z,45.50
2023-04-07T14:53:17.439Z,31.25
2023-04-07T14:58:21.662Z,38.80
2023-04-07T15:03:26.346Z,41.45
2023-04-07T15:08:32.395Z,47.75
2023-04-07T15:13:37.744Z,37.28
2023-04-07T15:18:44.847Z,38.25
2023-04-07T15:23:50.761Z,28.27
2023-04-07T15:28:55.363Z,32.70
2023-04-07T15:33:59.725Z,32.28
2023-04-07T15:39:06.863Z,42.88
2023-04-07T15:44:11.120Z,38.22
2023-04-07T15:49:20.239Z,38.00
2023-04-07T15:54:27.085Z,35.25
2023-04-07T15:59:31.417Z,49.88
2023-04-07T16:04:36.027Z,42.50
2023-04-07T16:09:41.560Z,47.75
2023-04-07T16:14:46.069Z,40.17
2023-04-07T16:19:50.268Z,55.08
2023-04-07T16:24:55.819Z,37.15
2023-04-07T16:30:00.308Z,41.85
2023-04-07T16:35:05.032Z,41.45
2023-04-07T16:40:11.934Z,43.60
2023-04-07T16:45:16.296Z,45.03
2023-04-07T16:50:20.704Z,43.88
2023-04-07T16:55:26.805Z,40.08
2023-04-07T17:00:31.364Z,40.55
2023-04-07T17:05:36.932Z,40.47
2023-04-07T17:10:43.605Z,49.60
2023-04-07T17:15:48.044Z,56.05
2023-04-07T17:20:52.588Z,54.38
2023-04-07T17:25:58.311Z,49.88
2023-04-07T17:31:03.161Z,59.42
2023-04-07T17:36:07.944Z,50.97
2023-04-07T17:41:13.898Z,66.88
2023-04-07T17:46:18.204Z,66.35
2023-04-07T17:51:22.695Z,61.75
2023-04-07T17:56:28.956Z,55.38
2023-04-07T18:01:33.770Z,55.65
2023-04-07T18:06:38.527Z,58.45
2023-04-07T18:11:44.308Z,53.63
2023-04-07T18:16:48.447Z,52.17
2023-04-07T18:21:53.429Z,68.10
2023-04-07T18:27:00.038Z,44.08
2023-04-07T18:32:04.619Z,50.22
2023-04-07T18:37:09.738Z,68.05
2023-04-07T18:42:15.639Z,69.25
2023-04-07T18:47:20.473Z,64.63
2023-04-07T18:52:25.121Z,57.80
2023-04-07T18:57:30.907Z,72.25
2023-04-07T19:02:35.179Z,55.60
2023-04-07T19:07:39.970Z,52.25
2023-04-07T19:12:46.463Z,50.78
2023-04-07T19:17:51.251Z,61.20
2023-04-07T19:22:56.043Z,57.58
2023-04-07T19:28:02.280Z,52.85
2023-04-07T19:33:06.869Z,53.25
2023-04-07T19:38:11.639Z,49.05
2023-04-07T19:43:17.669Z,55.22
2023-04-07T19:48:22.167Z,202.77
2023-04-07T19:53:26.422Z,67.32
2023-04-07T19:58:34.519Z,75.10
2023-04-07T20:03:40.049Z,151.82
2023-04-07T20:08:44.365Z,61.83
2023-04-07T20:13:50.893Z,56.78
2023-04-07T20:18:55.609Z,44.10
2023-04-07T20:24:00.027Z,40.60
2023-04-07T20:29:05.757Z,76.85
2023-04-07T20:34:10.002Z,40.03
2023-04-07T20:39:14.564Z,153.75
2023-04-07T20:44:20.489Z,180.00
2023-04-07T20:49:25.112Z,176.40
2023-04-07T20:54:30.095Z,126.93
2023-04-07T20:59:36.330Z,42.33
2023-04-07T21:04:40.496Z,36.67
2023-04-07T21:09:45.122Z,69.22
2023-04-07T21:14:51.306Z,224.02
2023-04-07T21:19:55.789Z,217.70
2023-04-07T21:25:00.170Z,355.48
2023-04-07T21:30:07.860Z,399.08
2023-04-07T21:35:12.809Z,204.68
2023-04-07T21:40:17.137Z,61.50
2023-04-07T21:45:23.279Z,72.93
2023-04-07T21:50:28.313Z,33.80
2023-04-07T21:55:34.294Z,176.77
2023-04-07T22:00:40.171Z,171.88
2023-04-07T22:05:44.446Z,242.63
2023-04-07T22:10:48.763Z,176.50
2023-04-07T22:15:54.612Z,164.20
2023-04-07T22:20:59.106Z,86.15
2023-04-07T22:26:03.566Z,154.43
2023-04-07T22:31:09.844Z,201.57
2023-04-07T22:36:14.392Z,100.72
2023-04-07T22:41:18.524Z,368.10
2023-04-07T22:46:24.161Z,25.50
2023-04-07T22:51:29.596Z,33.85
2023-04-07T22:56:33.937Z,35.53
2023-04-07T23:01:39.783Z,34.92
2023-04-07T23:06:44.115Z,24.02
2023-04-07T23:11:49.006Z,20.55
2023-04-07T23:16:56.388Z,22.20
2023-04-07T23:22:00.760Z,21.17
2023-04-07T23:27:05.959Z,145.70
2023-04-07T23:32:11.578Z,172.27
2023-04-07T23:37:15.892Z,207.20
2023-04-07T23:42:20.131Z,291.60
2023-04-07T23:47:25.880Z,180.93
2023-04-07T23:52:30.133Z,192.70
2023-04-07T23:57:34.291Z,260.65
